Time;durP1;ratioP1;P1;durP2;ratioP2;P2;SDS_P1;SDS_P2;PMS_P1;PMS_P2;Temp;Humidity;BMP_temperature;BMP_pressure;BME280_temperature;BME280_humidity;BME280_pressure;Samples;Min_cycle;Max_cycle;Signal;HPM_P1;HPM_P2
2024/01/31 00:01:48;;;;;;;3.13;0.80;;;6.80;99.90;;;;;;5092902;28;20058;-40
2024/01/31 00:04:14;;;;;;;3.63;1.15;;;6.80;99.90;;;;;;5092630;28;20480;-42
2024/01/31 00:06:41;;;;;;;0.80;0.40;;;6.90;99.90;;;;;;5093091;28;20515;-42
2024/01/31 00:09:07;;;;;;;5.25;0.88;;;6.90;99.90;;;;;;5092786;28;20027;-40
2024/01/31 00:11:33;;;;;;;2.97;0.50;;;6.90;99.90;;;;;;5092833;28;20020;-43
2024/01/31 00:13:58;;;;;;;5.32;0.52;;;6.90;99.90;;;;;;5093332;28;20024;-42
2024/01/31 00:16:24;;;;;;;2.60;0.52;;;6.90;99.90;;;;;;5091466;28;20035;-40
2024/01/31 00:18:50;;;;;;;1.20;0.70;;;6.90;99.90;;;;;;5093002;28;20574;-41
2024/01/31 00:21:17;;;;;;;4.95;0.30;;;6.90;99.90;;;;;;5092356;28;20103;-41
2024/01/31 00:23:43;;;;;;;3.03;0.57;;;6.80;99.90;;;;;;5114867;28;20031;-41
2024/01/31 00:26:08;;;;;;;4.78;0.60;;;6.80;99.90;;;;;;5126567;27;20498;-39
2024/01/31 00:28:34;;;;;;;1.50;0.60;;;6.80;99.90;;;;;;5113226;28;20468;-41
2024/01/31 00:31:00;;;;;;;6.30;0.52;;;6.90;99.90;;;;;;5103611;28;20028;-41
2024/01/31 00:33:25;;;;;;;2.42;0.73;;;6.80;99.90;;;;;;5092823;28;20091;-41
2024/01/31 00:35:52;;;;;;;3.67;0.98;;;6.80;99.90;;;;;;5092516;28;20081;-41
2024/01/31 00:38:17;;;;;;;8.77;0.98;;;6.70;99.90;;;;;;5092804;28;20077;-39
2024/01/31 00:40:43;;;;;;;3.42;0.28;;;6.70;99.90;;;;;;5092509;28;20438;-43
2024/01/31 00:43:10;;;;;;;4.05;0.60;;;6.70;99.90;;;;;;5100614;28;20084;-57
2024/01/31 00:45:35;;;;;;;1.90;0.40;;;6.70;99.90;;;;;;5103676;28;20028;-41
2024/01/31 00:48:02;;;;;;;1.80;0.70;;;6.70;99.90;;;;;;5093163;28;20530;-45
2024/01/31 00:50:27;;;;;;;8.05;0.90;;;6.80;99.90;;;;;;5092703;28;20399;-42
2024/01/31 00:52:53;;;;;;;5.93;0.77;;;6.80;99.90;;;;;;5092382;28;20106;-45
2024/01/31 00:55:19;;;;;;;5.65;1.25;;;6.80;99.90;;;;;;5092381;28;20028;-45
2024/01/31 00:57:46;;;;;;;0.32;0.28;;;6.70;99.90;;;;;;5092349;28;20472;-40
2024/01/31 01:00:13;;;;;;;3.25;0.50;;;6.70;99.90;;;;;;5092608;28;20049;-41
2024/01/31 01:02:41;;;;;;;0.45;0.45;;;6.70;99.90;;;;;;5092308;28;20025;-42
2024/01/31 01:05:10;;;;;;;0.63;0.20;;;6.60;99.90;;;;;;5092849;28;20039;-40
2024/01/31 01:07:39;;;;;;;5.50;0.52;;;6.60;99.90;;;;;;5092586;28;20440;-43
2024/01/31 01:10:15;;;;;;;6.90;0.55;;;6.60;99.90;;;;;;5092151;28;20078;-40
2024/01/31 01:12:44;;;;;;;8.63;1.05;;;6.60;99.90;;;;;;5092329;28;20028;-45
2024/01/31 01:15:10;;;;;;;0.80;0.47;;;6.60;99.90;;;;;;5094281;28;20093;-40
2024/01/31 01:17:36;;;;;;;3.40;1.13;;;6.60;99.90;;;;;;5095884;28;20024;-45
2024/01/31 01:20:02;;;;;;;3.33;0.60;;;6.60;99.90;;;;;;5095754;28;20040;-42
2024/01/31 01:22:27;;;;;;;3.13;1.05;;;6.70;99.90;;;;;;5096021;28;20035;-44
2024/01/31 01:24:53;;;;;;;2.53;0.80;;;6.70;99.90;;;;;;5095642;28;20040;-43
2024/01/31 01:27:19;;;;;;;5.15;1.10;;;6.70;99.90;;;;;;5095652;28;20122;-42
2024/01/31 01:29:45;;;;;;;8.48;1.45;;;6.80;99.90;;;;;;5095893;28;20016;-45
2024/01/31 01:32:11;;;;;;;12.27;0.93;;;6.80;99.90;;;;;;5094329;28;20034;-39
2024/01/31 01:34:40;;;;;;;2.20;0.90;;;6.70;99.90;;;;;;5094262;28;20446;-42
2024/01/31 01:37:06;;;;;;;1.92;0.65;;;6.80;99.90;;;;;;5095369;28;20043;-42
2024/01/31 01:39:31;;;;;;;4.07;0.65;;;6.80;99.90;;;;;;5096006;28;20031;-42
2024/01/31 01:41:57;;;;;;;1.73;0.75;;;6.80;99.90;;;;;;5100916;28;20083;-40
2024/01/31 01:44:23;;;;;;;2.33;0.55;;;6.90;99.90;;;;;;5115537;28;20023;-40
2024/01/31 01:46:49;;;;;;;2.85;0.57;;;6.90;99.90;;;;;;5095799;28;20106;-40
2024/01/31 01:49:15;;;;;;;4.90;1.10;;;6.90;99.90;;;;;;5095164;28;20107;-41
2024/01/31 01:51:44;;;;;;;2.60;0.65;;;7.00;99.90;;;;;;5103101;28;20552;-41
2024/01/31 01:54:12;;;;;;;1.13;0.32;;;7.00;99.90;;;;;;5115428;28;20612;-40
2024/01/31 01:56:48;;;;;;;1.48;0.50;;;7.00;99.90;;;;;;5115832;28;20024;-42
2024/01/31 01:59:14;;;;;;;2.30;0.50;;;7.10;99.90;;;;;;5115547;28;20484;-39
2024/01/31 02:01:41;;;;;;;8.02;0.85;;;7.10;99.90;;;;;;5115427;28;20039;-44
2024/01/31 02:04:08;;;;;;;3.60;0.40;;;7.10;99.90;;;;;;5114768;28;20097;-43
2024/01/31 02:06:34;;;;;;;2.50;0.80;;;7.10;99.90;;;;;;5114355;28;20024;-40
2024/01/31 02:09:00;;;;;;;5.10;1.45;;;7.10;99.90;;;;;;5115201;28;20502;-41
2024/01/31 02:11:26;;;;;;;3.38;0.70;;;7.10;99.90;;;;;;5115480;28;20016;-42
2024/01/31 02:13:52;;;;;;;2.25;0.63;;;7.10;99.90;;;;;;5115185;27;20024;-40
2024/01/31 02:16:17;;;;;;;4.22;0.70;;;7.10;99.90;;;;;;5115386;27;20081;-40
2024/01/31 02:18:44;;;;;;;0.70;0.55;;;7.10;99.90;;;;;;5115033;28;20115;-42
2024/01/31 02:21:09;;;;;;;5.50;0.55;;;7.20;99.90;;;;;;5114834;28;20043;-43
2024/01/31 02:23:35;;;;;;;2.45;0.63;;;7.30;99.90;;;;;;5114892;28;20039;-40
2024/01/31 02:26:00;;;;;;;1.40;0.60;;;7.20;99.90;;;;;;5113785;28;20028;-40
2024/01/31 02:28:26;;;;;;;2.92;0.68;;;7.30;99.90;;;;;;5114864;28;20032;-41
2024/01/31 02:30:52;;;;;;;1.42;0.43;;;7.20;99.90;;;;;;5114757;28;20034;-39
2024/01/31 02:33:18;;;;;;;0.98;0.65;;;7.30;99.90;;;;;;5115011;28;20426;-41
2024/01/31 02:35:43;;;;;;;6.07;0.90;;;7.30;99.90;;;;;;5114747;28;20392;-42
2024/01/31 02:38:09;;;;;;;3.60;0.57;;;7.30;99.90;;;;;;5114924;28;20031;-39
2024/01/31 02:40:34;;;;;;;5.78;0.73;;;7.30;99.90;;;;;;5114558;28;20043;-42
2024/01/31 02:43:00;;;;;;;2.70;1.20;;;7.30;99.90;;;;;;5114547;28;20031;-41
2024/01/31 02:45:27;;;;;;;4.90;0.85;;;7.30;99.90;;;;;;5114309;28;20055;-41
2024/01/31 02:47:53;;;;;;;2.38;0.95;;;7.30;99.90;;;;;;5114727;28;20024;-40
2024/01/31 02:50:19;;;;;;;4.00;0.47;;;7.30;99.90;;;;;;5114332;28;20399;-39
2024/01/31 02:52:45;;;;;;;2.80;0.63;;;7.40;99.90;;;;;;5114376;28;20076;-41
2024/01/31 02:55:11;;;;;;;1.08;0.50;;;7.40;99.90;;;;;;5114321;28;20510;-40
2024/01/31 02:57:36;;;;;;;7.22;1.10;;;7.30;99.90;;;;;;5114294;28;20024;-40
2024/01/31 03:00:04;;;;;;;3.88;0.70;;;7.30;99.90;;;;;;5114294;28;20058;-40
2024/01/31 03:02:30;;;;;;;6.43;1.00;;;7.30;99.90;;;;;;5114568;28;20027;-38
2024/01/31 03:04:55;;;;;;;5.40;0.90;;;7.20;99.90;;;;;;5114047;28;20302;-40
2024/01/31 03:07:21;;;;;;;2.03;0.63;;;7.20;99.90;;;;;;5114037;28;20016;-42
2024/01/31 03:09:47;;;;;;;0.70;0.60;;;7.10;99.90;;;;;;5113979;28;20065;-44
2024/01/31 03:12:12;;;;;;;0.77;0.65;;;7.20;99.90;;;;;;5112738;28;20028;-41
2024/01/31 03:14:38;;;;;;;3.25;1.15;;;7.10;99.90;;;;;;5113965;28;20035;-41
2024/01/31 03:17:04;;;;;;;0.88;0.65;;;7.20;99.90;;;;;;5113907;28;20032;-41
2024/01/31 03:19:30;;;;;;;2.35;0.80;;;7.10;99.90;;;;;;5113747;28;20035;-39
2024/01/31 03:21:56;;;;;;;3.22;1.17;;;7.10;99.90;;;;;;5114119;28;20028;-45
2024/01/31 03:24:22;;;;;;;4.70;0.70;;;7.10;99.90;;;;;;5113694;28;20507;-41
2024/01/31 03:26:48;;;;;;;2.40;0.93;;;7.10;99.90;;;;;;5114017;28;20471;-42
2024/01/31 03:29:14;;;;;;;1.58;0.75;;;7.10;99.90;;;;;;5114006;28;20072;-39
2024/01/31 03:31:40;;;;;;;3.67;0.80;;;7.20;99.90;;;;;;5113702;28;20031;-39
2024/01/31 03:34:05;;;;;;;4.50;0.90;;;7.20;99.90;;;;;;5113906;28;20039;-39
2024/01/31 03:36:32;;;;;;;3.15;0.85;;;7.10;99.90;;;;;;5113544;28;20031;-39
2024/01/31 03:38:58;;;;;;;5.28;1.40;;;7.10;99.90;;;;;;5113225;28;20510;-40
2024/01/31 03:41:25;;;;;;;4.00;0.63;;;7.10;99.90;;;;;;5113714;28;20536;-39
2024/01/31 03:43:50;;;;;;;6.80;1.17;;;7.20;99.90;;;;;;5112171;28;20135;-42
2024/01/31 03:46:16;;;;;;;9.57;1.67;;;7.20;99.90;;;;;;5113269;28;20108;-40
2024/01/31 03:48:42;;;;;;;7.20;1.20;;;7.20;99.90;;;;;;5113619;28;20034;-40
2024/01/31 03:51:20;;;;;;;1.63;0.95;;;7.20;99.90;;;;;;5113426;28;20028;-41
2024/01/31 03:53:49;;;;;;;3.13;1.15;;;7.10;99.90;;;;;;5113627;28;20467;-40
2024/01/31 03:56:16;;;;;;;3.53;0.98;;;7.20;99.90;;;;;;5113580;28;20468;-40
2024/01/31 03:58:42;;;;;;;6.68;1.70;;;7.10;99.90;;;;;;5113337;28;20028;-40
2024/01/31 04:01:08;;;;;;;2.67;1.38;;;7.20;99.90;;;;;;5113347;28;20076;-40
2024/01/31 04:03:36;;;;;;;1.20;0.90;;;7.20;99.90;;;;;;5113520;28;20480;-40
2024/01/31 04:06:01;;;;;;;1.65;1.13;;;7.10;99.90;;;;;;5113500;28;20499;-41
2024/01/31 04:08:27;;;;;;;3.38;1.40;;;7.10;99.90;;;;;;5113201;28;20027;-40
2024/01/31 04:10:53;;;;;;;3.15;1.15;;;7.20;99.90;;;;;;5113108;28;20422;-40
2024/01/31 04:13:19;;;;;;;1.20;1.10;;;7.10;99.90;;;;;;5113242;28;20480;-41
2024/01/31 04:15:45;;;;;;;2.67;1.05;;;7.20;99.90;;;;;;5113165;28;20480;-42
2024/01/31 04:18:11;;;;;;;2.78;1.30;;;7.10;99.90;;;;;;5113131;28;20556;-40
2024/01/31 04:20:40;;;;;;;1.60;1.35;;;7.20;99.90;;;;;;5112934;28;20043;-41
2024/01/31 04:23:06;;;;;;;1.50;1.00;;;7.10;99.90;;;;;;5113025;28;20027;-43
2024/01/31 04:25:32;;;;;;;1.27;1.17;;;7.10;99.90;;;;;;5112909;28;20111;-39
2024/01/31 04:27:58;;;;;;;2.58;0.85;;;7.10;99.90;;;;;;5112995;28;20034;-42
2024/01/31 04:30:24;;;;;;;6.10;1.50;;;7.20;99.90;;;;;;5112990;28;20437;-40
2024/01/31 04:32:50;;;;;;;5.50;1.33;;;7.20;99.90;;;;;;5113192;28;20019;-41
2024/01/31 04:35:15;;;;;;;5.10;1.70;;;7.20;99.90;;;;;;5112971;28;20027;-42
2024/01/31 04:37:41;;;;;;;2.72;1.55;;;7.20;99.90;;;;;;5112887;28;20613;-41
2024/01/31 04:40:08;;;;;;;2.38;1.45;;;7.20;99.90;;;;;;5111563;28;20043;-42
2024/01/31 04:42:34;;;;;;;3.97;1.50;;;7.30;99.90;;;;;;5113143;28;20020;-43
2024/01/31 04:45:00;;;;;;;5.07;1.40;;;7.40;99.90;;;;;;5112656;28;20297;-40
2024/01/31 04:47:25;;;;;;;4.32;1.83;;;7.40;99.90;;;;;;5112852;28;20102;-40
2024/01/31 04:50:01;;;;;;;5.35;1.23;;;7.30;99.90;;;;;;5114233;28;20494;-42
2024/01/31 04:52:27;;;;;;;7.50;1.10;;;7.30;99.90;;;;;;5117020;28;20479;-39
2024/01/31 04:54:53;;;;;;;4.03;1.15;;;7.30;99.90;;;;;;5116707;28;20035;-40
2024/01/31 04:57:18;;;;;;;2.85;1.63;;;7.30;99.90;;;;;;5115403;28;20023;-39
2024/01/31 04:59:44;;;;;;;1.70;1.17;;;7.20;99.90;;;;;;5116593;28;20038;-39
2024/01/31 05:02:10;;;;;;;2.55;1.35;;;7.20;99.90;;;;;;5116567;27;20035;-40
2024/01/31 05:04:36;;;;;;;5.68;1.40;;;7.30;99.90;;;;;;5116656;28;20503;-41
2024/01/31 05:07:02;;;;;;;2.67;1.10;;;7.30;99.90;;;;;;5116458;28;20106;-43
2024/01/31 05:09:28;;;;;;;2.78;1.50;;;7.30;99.90;;;;;;5116420;28;20019;-40
2024/01/31 05:11:54;;;;;;;3.55;1.65;;;7.40;99.90;;;;;;5116402;28;20473;-42
2024/01/31 05:14:20;;;;;;;3.80;1.65;;;7.30;99.90;;;;;;5116597;28;20077;-43
2024/01/31 05:16:46;;;;;;;2.90;1.77;;;7.40;99.90;;;;;;5116216;28;20506;-42
2024/01/31 05:19:12;;;;;;;5.32;1.58;;;7.30;99.90;;;;;;5116124;28;20024;-41
2024/01/31 05:21:48;;;;;;;1.75;1.27;;;7.30;99.90;;;;;;5116132;28;20609;-42
2024/01/31 05:24:15;;;;;;;5.38;1.50;;;7.40;99.90;;;;;;5116062;28;20044;-40
2024/01/31 05:26:43;;;;;;;2.05;1.40;;;7.40;99.90;;;;;;5116347;28;20444;-39
2024/01/31 05:29:09;;;;;;;3.03;1.52;;;7.40;99.90;;;;;;5116016;27;20032;-42
2024/01/31 05:31:35;;;;;;;2.65;1.70;;;7.40;99.90;;;;;;5115960;28;20027;-41
2024/01/31 05:34:01;;;;;;;2.28;1.30;;;7.40;99.90;;;;;;5115869;28;20029;-41
2024/01/31 05:36:26;;;;;;;4.32;1.42;;;7.40;99.90;;;;;;5115811;28;20028;-41
2024/01/31 05:38:52;;;;;;;3.67;1.40;;;7.50;99.90;;;;;;5115789;28;20102;-40
2024/01/31 05:41:18;;;;;;;4.50;1.63;;;7.40;99.90;;;;;;5114404;28;20035;-42
2024/01/31 05:43:44;;;;;;;6.03;1.33;;;7.50;99.90;;;;;;5115642;28;20035;-41
2024/01/31 05:46:10;;;;;;;1.55;1.10;;;7.40;99.90;;;;;;5115529;28;20523;-42
2024/01/31 05:48:36;;;;;;;1.35;1.20;;;7.40;99.90;;;;;;5115539;28;20032;-42
2024/01/31 05:51:02;;;;;;;1.45;1.20;;;7.40;99.90;;;;;;5115586;27;20118;-41
2024/01/31 05:53:27;;;;;;;8.95;1.30;;;7.40;99.90;;;;;;5115556;28;20027;-39
2024/01/31 05:55:53;;;;;;;4.13;1.58;;;7.40;99.90;;;;;;5115496;28;20563;-40
2024/01/31 05:58:19;;;;;;;3.40;1.67;;;7.40;99.90;;;;;;5115525;28;20450;-42
2024/01/31 06:00:46;;;;;;;3.00;1.80;;;7.30;99.90;;;;;;5115184;28;20581;-40
2024/01/31 06:03:12;;;;;;;2.75;1.40;;;7.30;99.90;;;;;;5115304;28;20028;-42
2024/01/31 06:05:38;;;;;;;3.15;1.90;;;7.40;99.90;;;;;;5115236;28;20069;-43
2024/01/31 06:08:04;;;;;;;2.92;1.92;;;7.40;99.90;;;;;;5115169;28;20024;-40
2024/01/31 06:10:29;;;;;;;6.25;2.20;;;7.30;99.90;;;;;;5115459;28;20062;-46
2024/01/31 06:12:55;;;;;;;3.30;2.38;;;7.40;99.90;;;;;;5115136;28;20425;-41
2024/01/31 06:15:21;;;;;;;4.82;2.70;;;7.30;99.90;;;;;;5115130;28;20074;-43
2024/01/31 06:17:46;;;;;;;5.60;2.83;;;7.30;99.90;;;;;;5115085;28;20027;-39
2024/01/31 06:20:12;;;;;;;5.03;3.10;;;7.30;99.90;;;;;;5114780;28;20116;-39
2024/01/31 06:22:38;;;;;;;6.22;3.00;;;7.30;99.90;;;;;;5115000;28;20027;-42
2024/01/31 06:25:04;;;;;;;5.57;3.17;;;7.30;99.90;;;;;;5114880;28;20039;-40
2024/01/31 06:27:30;;;;;;;7.05;3.42;;;7.30;99.90;;;;;;5114901;28;20099;-42
2024/01/31 06:29:55;;;;;;;7.25;3.15;;;7.30;99.90;;;;;;5114845;28;20055;-42
2024/01/31 06:32:29;;;;;;;4.50;3.33;;;7.20;99.90;;;;;;5114810;28;20490;-41
2024/01/31 06:34:55;;;;;;;4.35;2.70;;;7.20;99.90;;;;;;5114882;28;20403;-56
2024/01/31 06:37:21;;;;;;;6.93;4.03;;;7.30;99.90;;;;;;5115094;28;20024;-56
2024/01/31 06:39:47;;;;;;;9.25;3.88;;;7.30;99.90;;;;;;5114713;28;20059;-56
2024/01/31 06:42:12;;;;;;;7.53;3.83;;;7.30;99.90;;;;;;5114645;28;20062;-56
2024/01/31 06:44:38;;;;;;;5.97;3.85;;;7.40;99.90;;;;;;5114402;28;20031;-62
2024/01/31 06:47:05;;;;;;;11.25;4.95;;;7.40;99.90;;;;;;5114400;28;20028;-56
2024/01/31 06:49:31;;;;;;;5.85;3.72;;;7.40;99.90;;;;;;5114344;28;20020;-55
2024/01/31 06:51:57;;;;;;;6.82;4.63;;;7.40;99.90;;;;;;5114392;28;20522;-56
2024/01/31 06:54:22;;;;;;;8.68;4.50;;;7.40;99.90;;;;;;5113038;28;20223;-56
2024/01/31 06:56:48;;;;;;;7.60;4.25;;;7.40;99.90;;;;;;5114301;28;20111;-55
2024/01/31 06:59:13;;;;;;;6.22;4.03;;;7.50;99.90;;;;;;5114363;28;20463;-57
2024/01/31 07:01:39;;;;;;;8.02;4.72;;;7.50;99.90;;;;;;5114521;28;20032;-58
2024/01/31 07:04:05;;;;;;;8.70;4.55;;;7.50;99.90;;;;;;5114070;28;20027;-56
2024/01/31 07:06:30;;;;;;;8.45;5.07;;;7.50;99.90;;;;;;5114151;28;20361;-56
2024/01/31 07:08:56;;;;;;;11.30;4.63;;;7.50;99.90;;;;;;5112799;28;20051;-57
2024/01/31 07:11:21;;;;;;;8.88;4.55;;;7.50;99.90;;;;;;5114040;28;20028;-56
2024/01/31 07:13:47;;;;;;;8.48;3.83;;;7.50;99.90;;;;;;5113296;28;20023;-56
2024/01/31 07:16:14;;;;;;;7.72;4.18;;;7.50;99.90;;;;;;5114136;28;20572;-57
2024/01/31 07:18:41;;;;;;;9.80;4.75;;;7.50;99.90;;;;;;5113749;28;20031;-55
2024/01/31 07:21:06;;;;;;;9.40;4.20;;;7.50;99.90;;;;;;5113530;28;20035;-57
2024/01/31 07:23:32;;;;;;;7.82;4.60;;;7.50;99.90;;;;;;5113822;28;20027;-57
2024/01/31 07:25:58;;;;;;;9.50;4.40;;;7.50;99.90;;;;;;5113933;28;20036;-56
2024/01/31 07:28:23;;;;;;;7.57;3.97;;;7.50;99.90;;;;;;5113706;28;20024;-57
2024/01/31 07:30:49;;;;;;;8.02;4.20;;;7.50;99.90;;;;;;5113742;28;20062;-57
2024/01/31 07:33:15;;;;;;;7.30;4.55;;;7.50;99.90;;;;;;5113661;28;20480;-57
2024/01/31 07:35:40;;;;;;;5.97;3.80;;;7.50;99.90;;;;;;5113861;28;20392;-55
2024/01/31 07:38:06;;;;;;;5.78;4.30;;;7.50;99.90;;;;;;5113801;28;20035;-55
2024/01/31 07:40:31;;;;;;;8.70;4.18;;;7.50;99.90;;;;;;5113526;28;20027;-56
2024/01/31 07:42:57;;;;;;;7.68;3.05;;;7.50;99.90;;;;;;5113538;28;20152;-41
2024/01/31 07:45:24;;;;;;;6.03;3.47;;;7.50;99.90;;;;;;5113267;28;20176;-41
2024/01/31 07:47:49;;;;;;;3.90;3.10;;;7.50;99.90;;;;;;5113605;28;20516;-39
2024/01/31 07:50:15;;;;;;;5.95;3.30;;;7.50;99.90;;;;;;5113601;28;20149;-40
2024/01/31 07:52:40;;;;;;;7.35;3.50;;;7.60;99.90;;;;;;5112028;28;20429;-40
2024/01/31 07:55:08;;;;;;;5.32;3.20;;;7.60;99.90;;;;;;5113333;28;20027;-38
2024/01/31 07:57:33;;;;;;;4.85;3.33;;;7.60;99.90;;;;;;5113282;28;20480;-42
2024/01/31 07:59:59;;;;;;;5.97;2.95;;;7.60;99.90;;;;;;5113438;28;20137;-40
2024/01/31 08:02:25;;;;;;;4.25;3.10;;;7.60;99.90;;;;;;5113196;28;20118;-40
2024/01/31 08:04:51;;;;;;;4.20;2.80;;;7.60;99.90;;;;;;5113075;28;20388;-43
2024/01/31 08:07:17;;;;;;;4.32;2.83;;;7.70;99.90;;;;;;5113084;28;20072;-40
2024/01/31 08:09:42;;;;;;;3.05;2.30;;;7.60;99.90;;;;;;5111755;28;20023;-40
2024/01/31 08:12:08;;;;;;;4.45;3.00;;;7.70;99.90;;;;;;5113065;28;20498;-42
2024/01/31 08:14:34;;;;;;;5.07;3.15;;;7.70;99.90;;;;;;5113107;28;20587;-40
2024/01/31 08:16:59;;;;;;;4.05;2.83;;;7.70;99.90;;;;;;5111662;28;20036;-43
2024/01/31 08:19:25;;;;;;;6.03;2.92;;;7.60;99.90;;;;;;5113028;28;20027;-41
2024/01/31 08:21:51;;;;;;;5.95;2.75;;;7.60;99.90;;;;;;5112911;28;20055;-40
2024/01/31 08:24:18;;;;;;;8.30;2.78;;;7.60;99.90;;;;;;5115111;28;20046;-41
2024/01/31 08:26:44;;;;;;;15.65;3.58;;;7.60;99.90;;;;;;5117378;28;20034;-40
2024/01/31 08:29:10;;;;;;;2.47;2.15;;;7.60;99.90;;;;;;5115948;28;20360;-39
2024/01/31 08:31:35;;;;;;;4.55;2.22;;;7.60;99.90;;;;;;5117395;28;20028;-42
2024/01/31 08:34:01;;;;;;;3.95;2.70;;;7.60;99.90;;;;;;5117022;28;20015;-41
2024/01/31 08:36:27;;;;;;;3.80;2.33;;;7.60;99.90;;;;;;5117287;28;20417;-42
2024/01/31 08:38:52;;;;;;;2.28;1.98;;;7.60;99.90;;;;;;5116968;28;20023;-40
2024/01/31 08:41:19;;;;;;;4.50;1.73;;;7.60;99.90;;;;;;5116934;28;20451;-40
2024/01/31 08:43:48;;;;;;;4.57;2.25;;;7.70;99.90;;;;;;5116903;28;20091;-41
2024/01/31 08:46:14;;;;;;;2.78;2.40;;;7.60;99.90;;;;;;5115473;28;20556;-40
2024/01/31 08:48:40;;;;;;;3.03;2.08;;;7.70;99.90;;;;;;5116724;28;20016;-41
2024/01/31 08:51:07;;;;;;;5.70;2.28;;;7.60;99.90;;;;;;5117039;28;20024;-46
2024/01/31 08:53:33;;;;;;;3.30;2.00;;;7.70;99.90;;;;;;5117034;28;20026;-42
2024/01/31 08:55:59;;;;;;;2.80;1.70;;;7.70;99.90;;;;;;5116713;28;20024;-39
2024/01/31 08:58:24;;;;;;;3.42;2.28;;;7.90;99.90;;;;;;5116881;28;20106;-45
2024/01/31 09:00:50;;;;;;;3.08;2.25;;;7.90;99.90;;;;;;5116555;28;20501;-40
2024/01/31 09:03:15;;;;;;;3.03;2.30;;;7.90;99.90;;;;;;5115139;28;20065;-39
2024/01/31 09:05:41;;;;;;;2.78;2.00;;;7.90;99.90;;;;;;5116383;28;20028;-40
2024/01/31 09:08:07;;;;;;;6.32;2.85;;;8.00;99.90;;;;;;5116311;28;20020;-41
2024/01/31 09:10:32;;;;;;;3.75;2.15;;;8.00;99.90;;;;;;5116619;28;20545;-40
2024/01/31 09:12:58;;;;;;;7.18;2.20;;;8.10;99.90;;;;;;5116102;28;20028;-42
2024/01/31 09:15:24;;;;;;;6.38;2.08;;;8.10;99.90;;;;;;5114472;28;20106;-43
2024/01/31 09:17:51;;;;;;;4.30;2.67;;;8.10;99.90;;;;;;5116175;28;20491;-43
2024/01/31 09:20:17;;;;;;;3.85;2.75;;;8.20;99.90;;;;;;5115946;28;20035;-40
2024/01/31 09:22:43;;;;;;;4.05;2.67;;;8.20;99.90;;;;;;5116190;28;20032;-43
2024/01/31 09:25:10;;;;;;;6.13;2.50;;;8.30;99.90;;;;;;5114900;28;20082;-41
2024/01/31 09:27:36;;;;;;;3.97;2.72;;;8.30;99.90;;;;;;5115995;28;20027;-40
2024/01/31 09:30:03;;;;;;;3.83;2.80;;;8.30;99.90;;;;;;5116035;28;20024;-42
2024/01/31 09:32:29;;;;;;;6.00;2.78;;;8.40;99.90;;;;;;5115969;28;20024;-39
2024/01/31 09:34:54;;;;;;;6.15;2.88;;;8.40;99.90;;;;;;5115339;28;20030;-43
2024/01/31 09:37:20;;;;;;;5.22;2.90;;;8.40;99.90;;;;;;5116088;28;20486;-40
2024/01/31 09:39:46;;;;;;;4.60;2.97;;;8.40;99.90;;;;;;5116107;28;20388;-40
2024/01/31 09:42:11;;;;;;;9.05;3.38;;;8.40;99.90;;;;;;5115990;28;20050;-40
2024/01/31 09:44:38;;;;;;;8.25;3.90;;;8.40;99.90;;;;;;5114247;28;20020;-41
2024/01/31 09:47:05;;;;;;;5.65;3.40;;;8.40;99.90;;;;;;5095474;28;20492;-44
2024/01/31 09:49:30;;;;;;;5.38;3.45;;;8.40;99.90;;;;;;5095063;28;20024;-40
2024/01/31 09:51:59;;;;;;;5.97;3.50;;;8.30;99.90;;;;;;5095179;28;20021;-41
2024/01/31 09:54:26;;;;;;;4.22;3.05;;;8.30;99.90;;;;;;5095198;28;20024;-42
2024/01/31 09:56:52;;;;;;;6.00;3.13;;;8.30;99.90;;;;;;5093796;28;20210;-40
2024/01/31 09:59:18;;;;;;;12.38;3.33;;;8.30;99.90;;;;;;5093979;28;20553;-42
2024/01/31 10:01:46;;;;;;;8.20;3.80;;;8.30;99.90;;;;;;5094900;28;20050;-41
2024/01/31 10:04:12;;;;;;;;;;;8.30;99.90;;;;;;5102818;28;20026;-57
2024/01/31 10:06:37;;;;;;;6.03;3.28;;;8.30;99.90;;;;;;5115091;28;20299;-56
2024/01/31 10:09:06;;;;;;;5.93;3.58;;;8.30;99.90;;;;;;5115003;28;20054;-57
2024/01/31 10:11:31;;;;;;;8.00;3.45;;;8.30;99.90;;;;;;5093946;28;20380;-57
2024/01/31 10:13:57;;;;;;;6.03;3.40;;;8.40;99.90;;;;;;5094932;28;20095;-56
2024/01/31 10:16:23;;;;;;;6.53;3.88;;;8.40;99.90;;;;;;5094774;28;20054;-56
2024/01/31 10:18:50;;;;;;;15.07;3.45;;;8.30;99.90;;;;;;5093354;28;20040;-56
2024/01/31 10:21:19;;;;;;;13.70;3.40;;;8.30;99.90;;;;;;5107074;28;20044;-57
2024/01/31 10:23:59;;;;;;;10.85;5.43;;;8.30;99.90;;;;;;5094873;28;20484;-56
2024/01/31 10:26:26;;;;;;;7.75;3.75;;;8.40;99.90;;;;;;5094767;28;20484;-57
2024/01/31 10:28:51;;;;;;;11.85;5.05;;;8.40;99.90;;;;;;5094466;28;20047;-56
2024/01/31 10:31:17;;;;;;;9.93;4.22;;;8.40;99.90;;;;;;5094599;28;20020;-56
2024/01/31 10:33:45;;;;;;;11.43;3.70;;;8.40;99.90;;;;;;5095466;28;20024;-57
2024/01/31 10:36:11;;;;;;;6.65;3.25;;;8.50;99.90;;;;;;5094317;28;20464;-57
2024/01/31 10:38:38;;;;;;;8.70;4.00;;;8.60;99.90;;;;;;5109086;28;20506;-56
2024/01/31 10:41:08;;;;;;;9.65;4.00;;;8.50;99.90;;;;;;5114688;28;20395;-56
2024/01/31 10:43:34;;;;;;;8.25;3.60;;;8.60;99.90;;;;;;5114845;28;20034;-58
2024/01/31 10:46:00;;;;;;;5.68;3.25;;;8.60;99.90;;;;;;5101717;28;20377;-56
2024/01/31 10:48:26;;;;;;;6.32;3.25;;;8.60;99.90;;;;;;5093045;28;20028;-56
2024/01/31 10:50:54;;;;;;;8.70;4.32;;;8.50;99.90;;;;;;5094348;28;20480;-56
2024/01/31 10:53:22;;;;;;;9.77;3.75;;;8.60;99.90;;;;;;5093932;28;20391;-56
2024/01/31 10:55:48;;;;;;;8.85;4.53;;;8.50;99.90;;;;;;5094522;28;20032;-56
2024/01/31 10:58:14;;;;;;;15.40;5.07;;;8.50;99.90;;;;;;5093779;28;20028;-56
2024/01/31 11:00:46;;;;;;;18.25;6.32;;;8.50;99.90;;;;;;5093930;28;20559;-56
2024/01/31 11:03:15;;;;;;;13.60;6.22;;;8.50;99.90;;;;;;5094063;28;20050;-55
2024/01/31 11:05:42;;;;;;;17.08;6.03;;;8.60;99.90;;;;;;5093931;28;20106;-56
2024/01/31 11:08:21;;;;;;;16.58;6.40;;;8.50;99.90;;;;;;5093951;28;20545;-56
2024/01/31 11:10:48;;;;;;;16.10;6.65;;;8.50;99.90;;;;;;5094358;28;20509;-56
2024/01/31 11:13:14;;;;;;;15.52;6.30;;;8.50;99.90;;;;;;5114054;28;20036;-52
2024/01/31 11:15:40;;;;;;;17.60;6.07;;;8.50;99.90;;;;;;5114228;28;20356;-54
2024/01/31 11:18:09;;;;;;;16.55;6.43;;;8.50;99.90;;;;;;5113900;27;20373;-56
2024/01/31 11:20:55;;;;;;;12.82;5.28;;;8.40;99.90;;;;;;5113586;28;20038;-56
2024/01/31 11:23:23;;;;;;;15.90;6.00;;;8.40;99.90;;;;;;5113769;28;20472;-56
2024/01/31 11:25:50;;;;;;;20.15;6.43;;;8.40;99.90;;;;;;5113929;28;20081;-56
2024/01/31 11:28:17;;;;;;;20.92;7.75;;;8.40;99.90;;;;;;5112814;28;20019;-54
2024/01/31 11:30:50;;;;;;;23.05;7.72;;;8.50;99.90;;;;;;5113903;28;20498;-56
2024/01/31 11:33:15;;;;;;;16.13;6.88;;;8.60;99.90;;;;;;5113738;28;20024;-56
2024/01/31 11:35:41;;;;;;;16.25;6.97;;;8.60;99.90;;;;;;5113599;28;20031;-56
2024/01/31 11:38:08;;;;;;;21.25;7.47;;;8.60;99.90;;;;;;5113513;28;20030;-56
2024/01/31 11:40:34;;;;;;;15.35;7.20;;;8.70;99.90;;;;;;5113409;28;20022;-56
2024/01/31 11:43:01;;;;;;;17.30;7.28;;;8.70;99.90;;;;;;5113411;28;20539;-56
2024/01/31 11:45:27;;;;;;;17.55;7.15;;;8.70;99.90;;;;;;5104344;28;20024;-56
2024/01/31 11:47:57;;;;;;;20.65;6.97;;;8.70;99.90;;;;;;5093347;28;20031;-56
2024/01/31 11:50:24;;;;;;;17.65;7.13;;;8.70;99.90;;;;;;5093284;28;20412;-55
2024/01/31 11:52:51;;;;;;;22.77;7.68;;;8.70;99.90;;;;;;5092916;28;20016;-56
2024/01/31 11:55:28;;;;;;;24.10;9.40;;;8.70;99.90;;;;;;5092984;28;20035;-56
2024/01/31 11:57:54;;;;;;;15.73;7.80;;;8.70;99.90;;;;;;5103968;28;20027;-57
2024/01/31 12:00:20;;;;;;;14.30;8.10;;;8.70;99.90;;;;;;5133706;27;20663;-57
2024/01/31 12:02:47;;;;;;;13.05;6.85;;;8.80;99.90;;;;;;5113810;27;20028;-56
2024/01/31 12:05:13;;;;;;;19.92;7.50;;;8.80;99.90;;;;;;5092767;28;20039;-56
2024/01/31 12:07:38;;;;;;;20.75;6.88;;;8.80;99.90;;;;;;5092746;28;20024;-57
2024/01/31 12:10:07;;;;;;;14.95;7.53;;;8.80;99.90;;;;;;5092756;28;20024;-56
2024/01/31 12:12:35;;;;;;;12.95;7.65;;;8.70;99.90;;;;;;5092721;28;20093;-57
2024/01/31 12:15:01;;;;;;;16.83;7.88;;;8.70;99.90;;;;;;5093049;28;20122;-54
2024/01/31 12:17:27;;;;;;;19.23;7.53;;;8.70;99.90;;;;;;5092929;28;20028;-56
2024/01/31 12:20:08;;;;;;;17.30;7.55;;;8.70;99.90;;;;;;5093217;28;20560;-56
2024/01/31 12:22:35;;;;;;;14.35;7.13;;;8.80;99.90;;;;;;5092748;28;20371;-57
2024/01/31 12:25:01;;;;;;;20.40;7.72;;;8.80;99.90;;;;;;5092727;28;20369;-47
2024/01/31 12:27:27;;;;;;;14.52;7.28;;;8.80;99.90;;;;;;5092683;28;20028;-39
2024/01/31 12:29:53;;;;;;;13.70;6.43;;;8.80;99.90;;;;;;5092641;28;20369;-39
2024/01/31 12:32:19;;;;;;;15.45;7.45;;;8.80;99.90;;;;;;5091372;28;20077;-41
2024/01/31 12:34:44;;;;;;;14.23;7.80;;;8.70;99.90;;;;;;5092580;28;20024;-41
2024/01/31 12:37:10;;;;;;;12.68;6.45;;;8.70;99.90;;;;;;5093378;28;20032;-42
2024/01/31 12:39:36;;;;;;;12.93;6.32;;;8.60;99.90;;;;;;5092495;28;20427;-39
2024/01/31 12:42:03;;;;;;;13.15;6.55;;;8.70;99.90;;;;;;5092450;28;20078;-39
2024/01/31 12:44:29;;;;;;;11.73;6.57;;;8.70;99.90;;;;;;5092603;28;20042;-42
2024/01/31 12:46:55;;;;;;;12.82;6.93;;;8.60;99.90;;;;;;5092469;28;20262;-46
2024/01/31 12:49:21;;;;;;;15.88;7.00;;;8.60;99.90;;;;;;5092405;28;20024;-45
2024/01/31 12:51:47;;;;;;;10.18;5.68;;;8.60;99.90;;;;;;5091100;28;20059;-42